<?xml version="1.0" encoding="utf-8"?>
<gpx xmlns:xsi="http://www.w3.org/2001/XMLSchema-instance" xmlns:xsd="http://www.w3.org/2001/XMLSchema" version="1.1" creator="Shapelink.com" xmlns="http://www.topografix.com/GPX/1/1" xmlns:gpxtpx="http://www.garmin.com/xmlschemas/TrackPointExtension/v1">
  <metadata>
    <name>Gåing 2.30 km, 2012-07-16</name>
    <desc></desc>
    <author><name>Mikael Blom</name></author> 
    <time>2012-07-16T10:16:41Z</time>
  </metadata>
  <trk>
    <name>Gåing 2.30 km, 2012-07-16</name>
    <trkseg>
      <trkpt lat="59.9787311" lon="17.7392539">
        <ele>40.0321</ele>
        <time>2012-07-16T10:16:41Z</time>
      </trkpt>
      <trkpt lat="59.9791572" lon="17.7391274">
        <ele>36.1868</ele>
        <time>2012-07-16T10:16:45Z</time>
      </trkpt>
      <trkpt lat="59.9792251" lon="17.7390897">
        <ele>38.1094</ele>
        <time>2012-07-16T10:16:50Z</time>
      </trkpt>
      <trkpt lat="59.9792974" lon="17.7390673">
        <ele>40.5128</ele>
        <time>2012-07-16T10:16:55Z</time>
      </trkpt>
      <trkpt lat="59.9793567" lon="17.7390379">
        <ele>43.3966</ele>
        <time>2012-07-16T10:17:00Z</time>
      </trkpt>
      <trkpt lat="59.9794479" lon="17.7390021">
        <ele>40.5128</ele>
        <time>2012-07-16T10:17:06Z</time>
      </trkpt>
      <trkpt lat="59.9794941" lon="17.7390493">
        <ele>47.2418</ele>
        <time>2012-07-16T10:17:09Z</time>
      </trkpt>
      <trkpt lat="59.9795855" lon="17.7390046">
        <ele>49.6453</ele>
        <time>2012-07-16T10:17:15Z</time>
      </trkpt>
      <trkpt lat="59.9796614" lon="17.7389477">
        <ele>52.0486</ele>
        <time>2012-07-16T10:17:21Z</time>
      </trkpt>
      <trkpt lat="59.9797525" lon="17.7388815">
        <ele>49.6453</ele>
        <time>2012-07-16T10:17:27Z</time>
      </trkpt>
      <trkpt lat="59.9797923" lon="17.7388625">
        <ele>48.684</ele>
        <time>2012-07-16T10:17:30Z</time>
      </trkpt>
      <trkpt lat="59.9799162" lon="17.7389038">
        <ele>61.6617</ele>
        <time>2012-07-16T10:17:37Z</time>
      </trkpt>
      <trkpt lat="59.980004" lon="17.7389299">
        <ele>64.0651</ele>
        <time>2012-07-16T10:17:42Z</time>
      </trkpt>
      <trkpt lat="59.980056" lon="17.7389119">
        <ele>63.1036</ele>
        <time>2012-07-16T10:17:46Z</time>
      </trkpt>
      <trkpt lat="59.980158" lon="17.7389161">
        <ele>69.3523</ele>
        <time>2012-07-16T10:17:52Z</time>
      </trkpt>
      <trkpt lat="59.9802336" lon="17.7388659">
        <ele>64.5457</ele>
        <time>2012-07-16T10:17:59Z</time>
      </trkpt>
      <trkpt lat="59.9802446" lon="17.7388678">
        <ele>64.5457</ele>
        <time>2012-07-16T10:18:00Z</time>
      </trkpt>
      <trkpt lat="59.9803332" lon="17.7386492">
        <ele>63.5844</ele>
        <time>2012-07-16T10:18:06Z</time>
      </trkpt>
      <trkpt lat="59.9805149" lon="17.7385575">
        <ele>56.3745</ele>
        <time>2012-07-16T10:18:13Z</time>
      </trkpt>
      <trkpt lat="59.9805233" lon="17.7385731">
        <ele>58.7777</ele>
        <time>2012-07-16T10:18:14Z</time>
      </trkpt>
      <trkpt lat="59.9805713" lon="17.7386616">
        <ele>61.181</ele>
        <time>2012-07-16T10:18:18Z</time>
      </trkpt>
      <trkpt lat="59.9806859" lon="17.7387317">
        <ele>58.2971</ele>
        <time>2012-07-16T10:18:25Z</time>
      </trkpt>
      <trkpt lat="59.980731" lon="17.7387415">
        <ele>67.4297</ele>
        <time>2012-07-16T10:18:29Z</time>
      </trkpt>
      <trkpt lat="59.9808439" lon="17.7387778">
        <ele>75.1202</ele>
        <time>2012-07-16T10:18:35Z</time>
      </trkpt>
      <trkpt lat="59.9808677" lon="17.7387254">
        <ele>69.3523</ele>
        <time>2012-07-16T10:18:40Z</time>
      </trkpt>
      <trkpt lat="59.9809205" lon="17.7387147">
        <ele>68.8716</ele>
        <time>2012-07-16T10:18:44Z</time>
      </trkpt>
      <trkpt lat="59.9810051" lon="17.7387444">
        <ele>69.8329</ele>
        <time>2012-07-16T10:18:49Z</time>
      </trkpt>
      <trkpt lat="59.98108" lon="17.7388351">
        <ele>71.7555</ele>
        <time>2012-07-16T10:18:55Z</time>
      </trkpt>
      <trkpt lat="59.9813175" lon="17.7389074">
        <ele>68.3909</ele>
        <time>2012-07-16T10:19:01Z</time>
      </trkpt>
      <trkpt lat="59.9813294" lon="17.7388835">
        <ele>65.9877</ele>
        <time>2012-07-16T10:19:04Z</time>
      </trkpt>
      <trkpt lat="59.981383" lon="17.7389234">
        <ele>71.2749</ele>
        <time>2012-07-16T10:19:10Z</time>
      </trkpt>
      <trkpt lat="59.9814431" lon="17.7389663">
        <ele>66.4683</ele>
        <time>2012-07-16T10:19:14Z</time>
      </trkpt>
      <trkpt lat="59.9815166" lon="17.7390801">
        <ele>69.8329</ele>
        <time>2012-07-16T10:19:19Z</time>
      </trkpt>
      <trkpt lat="59.981581" lon="17.7391718">
        <ele>71.7555</ele>
        <time>2012-07-16T10:19:25Z</time>
      </trkpt>
      <trkpt lat="59.9816178" lon="17.7391528">
        <ele>64.0651</ele>
        <time>2012-07-16T10:19:29Z</time>
      </trkpt>
      <trkpt lat="59.9817235" lon="17.7391937">
        <ele>56.3745</ele>
        <time>2012-07-16T10:19:37Z</time>
      </trkpt>
      <trkpt lat="59.9817416" lon="17.7392176">
        <ele>50.126</ele>
        <time>2012-07-16T10:19:43Z</time>
      </trkpt>
      <trkpt lat="59.9817618" lon="17.7391971">
        <ele>45.3192</ele>
        <time>2012-07-16T10:19:48Z</time>
      </trkpt>
      <trkpt lat="59.9818271" lon="17.7392491">
        <ele>48.684</ele>
        <time>2012-07-16T10:19:53Z</time>
      </trkpt>
      <trkpt lat="59.9819193" lon="17.7393797">
        <ele>53.0098</ele>
        <time>2012-07-16T10:19:57Z</time>
      </trkpt>
      <trkpt lat="59.9819436" lon="17.7393699">
        <ele>52.0486</ele>
        <time>2012-07-16T10:20:01Z</time>
      </trkpt>
      <trkpt lat="59.9819815" lon="17.7393756">
        <ele>51.0872</ele>
        <time>2012-07-16T10:20:06Z</time>
      </trkpt>
      <trkpt lat="59.9821166" lon="17.7395486">
        <ele>53.0098</ele>
        <time>2012-07-16T10:20:12Z</time>
      </trkpt>
      <trkpt lat="59.9821869" lon="17.7395665">
        <ele>46.2806</ele>
        <time>2012-07-16T10:20:18Z</time>
      </trkpt>
      <trkpt lat="59.9822358" lon="17.7395764">
        <ele>40.9934</ele>
        <time>2012-07-16T10:20:22Z</time>
      </trkpt>
      <trkpt lat="59.9823859" lon="17.7395977">
        <ele>34.7449</ele>
        <time>2012-07-16T10:20:29Z</time>
      </trkpt>
      <trkpt lat="59.982428" lon="17.7395927">
        <ele>31.8607</ele>
        <time>2012-07-16T10:20:32Z</time>
      </trkpt>
      <trkpt lat="59.9824363" lon="17.7395853">
        <ele>31.3801</ele>
        <time>2012-07-16T10:20:34Z</time>
      </trkpt>
      <trkpt lat="59.9824886" lon="17.7395882">
        <ele>36.6675</ele>
        <time>2012-07-16T10:20:40Z</time>
      </trkpt>
      <trkpt lat="59.9824943" lon="17.7396132">
        <ele>38.5901</ele>
        <time>2012-07-16T10:20:41Z</time>
      </trkpt>
      <trkpt lat="59.9825425" lon="17.7399583">
        <ele>41.474</ele>
        <time>2012-07-16T10:20:53Z</time>
      </trkpt>
      <trkpt lat="59.9825569" lon="17.7400729">
        <ele>41.474</ele>
        <time>2012-07-16T10:20:57Z</time>
      </trkpt>
      <trkpt lat="59.9828485" lon="17.7400784">
        <ele>39.0707</ele>
        <time>2012-07-16T10:21:04Z</time>
      </trkpt>
      <trkpt lat="59.9829868" lon="17.7398654">
        <ele>26.0929</ele>
        <time>2012-07-16T10:21:14Z</time>
      </trkpt>
      <trkpt lat="59.9830667" lon="17.7399184">
        <ele>26.5736</ele>
        <time>2012-07-16T10:21:19Z</time>
      </trkpt>
      <trkpt lat="59.9830865" lon="17.7399328">
        <ele>24.1703</ele>
        <time>2012-07-16T10:21:21Z</time>
      </trkpt>
      <trkpt lat="59.9831175" lon="17.7400688">
        <ele>24.1703</ele>
        <time>2012-07-16T10:21:25Z</time>
      </trkpt>
      <trkpt lat="59.9832128" lon="17.7402124">
        <ele>21.2864</ele>
        <time>2012-07-16T10:21:31Z</time>
      </trkpt>
      <trkpt lat="59.9832672" lon="17.7402894">
        <ele>21.767</ele>
        <time>2012-07-16T10:21:36Z</time>
      </trkpt>
      <trkpt lat="59.9832948" lon="17.7403339">
        <ele>26.5736</ele>
        <time>2012-07-16T10:21:42Z</time>
      </trkpt>
      <trkpt lat="59.9834764" lon="17.7405359">
        <ele>31.3801</ele>
        <time>2012-07-16T10:21:46Z</time>
      </trkpt>
      <trkpt lat="59.9835288" lon="17.7406116">
        <ele>35.2255</ele>
        <time>2012-07-16T10:21:52Z</time>
      </trkpt>
      <trkpt lat="59.9836074" lon="17.7406265">
        <ele>30.8995</ele>
        <time>2012-07-16T10:21:56Z</time>
      </trkpt>
      <trkpt lat="59.9836355" lon="17.7406642">
        <ele>26.5736</ele>
        <time>2012-07-16T10:22:02Z</time>
      </trkpt>
      <trkpt lat="59.9836865" lon="17.7406833">
        <ele>28.0155</ele>
        <time>2012-07-16T10:22:07Z</time>
      </trkpt>
      <trkpt lat="59.9837787" lon="17.7407042">
        <ele>15.999</ele>
        <time>2012-07-16T10:22:13Z</time>
      </trkpt>
      <trkpt lat="59.983805" lon="17.7407033">
        <ele>14.557</ele>
        <time>2012-07-16T10:22:15Z</time>
      </trkpt>
      <trkpt lat="59.9839644" lon="17.7407874">
        <ele>7.34717</ele>
        <time>2012-07-16T10:22:21Z</time>
      </trkpt>
      <trkpt lat="59.9840818" lon="17.7408571">
        <ele>0</ele>
        <time>2012-07-16T10:22:28Z</time>
      </trkpt>
      <trkpt lat="59.9841152" lon="17.7408895">
        <ele>0</ele>
        <time>2012-07-16T10:22:33Z</time>
      </trkpt>
      <trkpt lat="59.9841862" lon="17.7409159">
        <ele>0</ele>
        <time>2012-07-16T10:22:38Z</time>
      </trkpt>
      <trkpt lat="59.9842615" lon="17.7409508">
        <ele>0</ele>
        <time>2012-07-16T10:22:43Z</time>
      </trkpt>
      <trkpt lat="59.9843188" lon="17.7409776">
        <ele>0</ele>
        <time>2012-07-16T10:22:47Z</time>
      </trkpt>
      <trkpt lat="59.9843248" lon="17.7409803">
        <ele>0</ele>
        <time>2012-07-16T10:22:48Z</time>
      </trkpt>
      <trkpt lat="59.9843973" lon="17.7411444">
        <ele>0</ele>
        <time>2012-07-16T10:22:54Z</time>
      </trkpt>
      <trkpt lat="59.9844045" lon="17.7411725">
        <ele>0</ele>
        <time>2012-07-16T10:22:56Z</time>
      </trkpt>
      <trkpt lat="59.984529" lon="17.7412974">
        <ele>0</ele>
        <time>2012-07-16T10:23:03Z</time>
      </trkpt>
      <trkpt lat="59.984614" lon="17.741331">
        <ele>0</ele>
        <time>2012-07-16T10:23:09Z</time>
      </trkpt>
      <trkpt lat="59.9847381" lon="17.7413368">
        <ele>0</ele>
        <time>2012-07-16T10:23:17Z</time>
      </trkpt>
      <trkpt lat="59.9848345" lon="17.7413239">
        <ele>0</ele>
        <time>2012-07-16T10:23:23Z</time>
      </trkpt>
      <trkpt lat="59.9848984" lon="17.741376">
        <ele>0</ele>
        <time>2012-07-16T10:23:28Z</time>
      </trkpt>
      <trkpt lat="59.9849709" lon="17.7414714">
        <ele>0</ele>
        <time>2012-07-16T10:23:34Z</time>
      </trkpt>
      <trkpt lat="59.985035" lon="17.7415143">
        <ele>0</ele>
        <time>2012-07-16T10:23:39Z</time>
      </trkpt>
      <trkpt lat="59.9851745" lon="17.7416388">
        <ele>0</ele>
        <time>2012-07-16T10:23:45Z</time>
      </trkpt>
      <trkpt lat="59.9852639" lon="17.7417449">
        <ele>0</ele>
        <time>2012-07-16T10:23:52Z</time>
      </trkpt>
      <trkpt lat="59.9853833" lon="17.7418682">
        <ele>0</ele>
        <time>2012-07-16T10:24:03Z</time>
      </trkpt>
      <trkpt lat="59.9855158" lon="17.7419412">
        <ele>0</ele>
        <time>2012-07-16T10:24:10Z</time>
      </trkpt>
      <trkpt lat="59.9856151" lon="17.742005">
        <ele>0</ele>
        <time>2012-07-16T10:24:15Z</time>
      </trkpt>
      <trkpt lat="59.9856219" lon="17.7420258">
        <ele>0</ele>
        <time>2012-07-16T10:24:16Z</time>
      </trkpt>
      <trkpt lat="59.9857291" lon="17.7422204">
        <ele>0</ele>
        <time>2012-07-16T10:24:23Z</time>
      </trkpt>
      <trkpt lat="59.9857282" lon="17.7422141">
        <ele>0</ele>
        <time>2012-07-16T10:24:28Z</time>
      </trkpt>
      <trkpt lat="59.9857965" lon="17.7422288">
        <ele>0</ele>
        <time>2012-07-16T10:24:33Z</time>
      </trkpt>
      <trkpt lat="59.9859344" lon="17.742342">
        <ele>0</ele>
        <time>2012-07-16T10:24:39Z</time>
      </trkpt>
      <trkpt lat="59.9860174" lon="17.7424425">
        <ele>0</ele>
        <time>2012-07-16T10:24:43Z</time>
      </trkpt>
      <trkpt lat="59.9861642" lon="17.7426243">
        <ele>0</ele>
        <time>2012-07-16T10:24:50Z</time>
      </trkpt>
      <trkpt lat="59.9861914" lon="17.742658">
        <ele>0</ele>
        <time>2012-07-16T10:24:55Z</time>
      </trkpt>
      <trkpt lat="59.9862378" lon="17.7426841">
        <ele>1.09863</ele>
        <time>2012-07-16T10:25:01Z</time>
      </trkpt>
      <trkpt lat="59.9863199" lon="17.7427674">
        <ele>0</ele>
        <time>2012-07-16T10:25:05Z</time>
      </trkpt>
      <trkpt lat="59.9864617" lon="17.7429498">
        <ele>0.137451</ele>
        <time>2012-07-16T10:25:12Z</time>
      </trkpt>
      <trkpt lat="59.9865628" lon="17.7431073">
        <ele>2.54065</ele>
        <time>2012-07-16T10:25:18Z</time>
      </trkpt>
      <trkpt lat="59.9866301" lon="17.7432499">
        <ele>2.06006</ele>
        <time>2012-07-16T10:25:22Z</time>
      </trkpt>
      <trkpt lat="59.9866859" lon="17.7432621">
        <ele>0</ele>
        <time>2012-07-16T10:25:28Z</time>
      </trkpt>
      <trkpt lat="59.9866913" lon="17.7432703">
        <ele>0</ele>
        <time>2012-07-16T10:25:34Z</time>
      </trkpt>
      <trkpt lat="59.9867363" lon="17.7432689">
        <ele>0</ele>
        <time>2012-07-16T10:25:37Z</time>
      </trkpt>
      <trkpt lat="59.9868897" lon="17.7432237">
        <ele>0</ele>
        <time>2012-07-16T10:25:44Z</time>
      </trkpt>
      <trkpt lat="59.9868998" lon="17.7432131">
        <ele>0</ele>
        <time>2012-07-16T10:25:46Z</time>
      </trkpt>
      <trkpt lat="59.9870026" lon="17.7432791">
        <ele>0</ele>
        <time>2012-07-16T10:25:53Z</time>
      </trkpt>
      <trkpt lat="59.9871039" lon="17.74332">
        <ele>0</ele>
        <time>2012-07-16T10:25:59Z</time>
      </trkpt>
      <trkpt lat="59.9871579" lon="17.7433182">
        <ele>0</ele>
        <time>2012-07-16T10:26:05Z</time>
      </trkpt>
      <trkpt lat="59.9872222" lon="17.7433503">
        <ele>0</ele>
        <time>2012-07-16T10:26:09Z</time>
      </trkpt>
      <trkpt lat="59.9873471" lon="17.7433744">
        <ele>0</ele>
        <time>2012-07-16T10:26:15Z</time>
      </trkpt>
      <trkpt lat="59.987432" lon="17.7434321">
        <ele>0</ele>
        <time>2012-07-16T10:26:19Z</time>
      </trkpt>
      <trkpt lat="59.9875533" lon="17.7435207">
        <ele>0</ele>
        <time>2012-07-16T10:26:24Z</time>
      </trkpt>
      <trkpt lat="59.9876504" lon="17.7436018">
        <ele>0</ele>
        <time>2012-07-16T10:26:30Z</time>
      </trkpt>
      <trkpt lat="59.9876491" lon="17.7435972">
        <ele>0</ele>
        <time>2012-07-16T10:26:35Z</time>
      </trkpt>
      <trkpt lat="59.9876438" lon="17.7435404">
        <ele>0</ele>
        <time>2012-07-16T10:26:40Z</time>
      </trkpt>
      <trkpt lat="59.9876987" lon="17.7434803">
        <ele>0</ele>
        <time>2012-07-16T10:26:45Z</time>
      </trkpt>
      <trkpt lat="59.9878073" lon="17.7434933">
        <ele>0</ele>
        <time>2012-07-16T10:26:50Z</time>
      </trkpt>
      <trkpt lat="59.9878838" lon="17.7434518">
        <ele>0</ele>
        <time>2012-07-16T10:26:56Z</time>
      </trkpt>
      <trkpt lat="59.9878959" lon="17.7434521">
        <ele>0</ele>
        <time>2012-07-16T10:26:57Z</time>
      </trkpt>
      <trkpt lat="59.9879399" lon="17.7434933">
        <ele>0</ele>
        <time>2012-07-16T10:27:01Z</time>
      </trkpt>
      <trkpt lat="59.9880508" lon="17.7435916">
        <ele>0</ele>
        <time>2012-07-16T10:27:05Z</time>
      </trkpt>
      <trkpt lat="59.9881085" lon="17.7435808">
        <ele>0</ele>
        <time>2012-07-16T10:27:10Z</time>
      </trkpt>
      <trkpt lat="59.9881134" lon="17.7435792">
        <ele>0</ele>
        <time>2012-07-16T10:27:11Z</time>
      </trkpt>
      <trkpt lat="59.9882152" lon="17.7436646">
        <ele>0</ele>
        <time>2012-07-16T10:27:17Z</time>
      </trkpt>
      <trkpt lat="59.9882925" lon="17.743704">
        <ele>0</ele>
        <time>2012-07-16T10:27:21Z</time>
      </trkpt>
      <trkpt lat="59.9883655" lon="17.7436917">
        <ele>0</ele>
        <time>2012-07-16T10:27:26Z</time>
      </trkpt>
      <trkpt lat="59.9884189" lon="17.7436724">
        <ele>0</ele>
        <time>2012-07-16T10:27:31Z</time>
      </trkpt>
      <trkpt lat="59.988452" lon="17.7436646">
        <ele>0</ele>
        <time>2012-07-16T10:27:34Z</time>
      </trkpt>
      <trkpt lat="59.9884705" lon="17.7436315">
        <ele>0</ele>
        <time>2012-07-16T10:27:38Z</time>
      </trkpt>
      <trkpt lat="59.98851" lon="17.7435776">
        <ele>0</ele>
        <time>2012-07-16T10:27:43Z</time>
      </trkpt>
      <trkpt lat="59.9885561" lon="17.7435743">
        <ele>0</ele>
        <time>2012-07-16T10:27:48Z</time>
      </trkpt>
      <trkpt lat="59.988657" lon="17.7435985">
        <ele>0</ele>
        <time>2012-07-16T10:27:53Z</time>
      </trkpt>
      <trkpt lat="59.9887108" lon="17.7435952">
        <ele>0</ele>
        <time>2012-07-16T10:27:57Z</time>
      </trkpt>
      <trkpt lat="59.988783" lon="17.7435216">
        <ele>0</ele>
        <time>2012-07-16T10:28:02Z</time>
      </trkpt>
      <trkpt lat="59.9888777" lon="17.7434361">
        <ele>0</ele>
        <time>2012-07-16T10:28:08Z</time>
      </trkpt>
      <trkpt lat="59.9889131" lon="17.7434513">
        <ele>0</ele>
        <time>2012-07-16T10:28:13Z</time>
      </trkpt>
      <trkpt lat="59.9889671" lon="17.7435009">
        <ele>0</ele>
        <time>2012-07-16T10:28:18Z</time>
      </trkpt>
      <trkpt lat="59.9890964" lon="17.7435211">
        <ele>0</ele>
        <time>2012-07-16T10:28:24Z</time>
      </trkpt>
      <trkpt lat="59.9892061" lon="17.7435714">
        <ele>0</ele>
        <time>2012-07-16T10:28:32Z</time>
      </trkpt>
      <trkpt lat="59.9892419" lon="17.74359">
        <ele>0</ele>
        <time>2012-07-16T10:28:37Z</time>
      </trkpt>
      <trkpt lat="59.9892477" lon="17.7435683">
        <ele>0</ele>
        <time>2012-07-16T10:28:39Z</time>
      </trkpt>
      <trkpt lat="59.989409" lon="17.7435143">
        <ele>0</ele>
        <time>2012-07-16T10:28:47Z</time>
      </trkpt>
      <trkpt lat="59.9894641" lon="17.7435098">
        <ele>0</ele>
        <time>2012-07-16T10:28:51Z</time>
      </trkpt>
      <trkpt lat="59.989618" lon="17.7435246">
        <ele>0</ele>
        <time>2012-07-16T10:28:57Z</time>
      </trkpt>
      <trkpt lat="59.9896629" lon="17.7435087">
        <ele>0</ele>
        <time>2012-07-16T10:29:03Z</time>
      </trkpt>
      <trkpt lat="59.9898074" lon="17.7435911">
        <ele>0</ele>
        <time>2012-07-16T10:29:09Z</time>
      </trkpt>
      <trkpt lat="59.9898154" lon="17.743544">
        <ele>0</ele>
        <time>2012-07-16T10:29:14Z</time>
      </trkpt>
      <trkpt lat="59.9898348" lon="17.7434024">
        <ele>0</ele>
        <time>2012-07-16T10:29:20Z</time>
      </trkpt>
      <trkpt lat="59.9898521" lon="17.7433965">
        <ele>0</ele>
        <time>2012-07-16T10:29:21Z</time>
      </trkpt>
      <trkpt lat="59.9900288" lon="17.7434165">
        <ele>0</ele>
        <time>2012-07-16T10:29:28Z</time>
      </trkpt>
      <trkpt lat="59.990065" lon="17.7433399">
        <ele>0</ele>
        <time>2012-07-16T10:29:32Z</time>
      </trkpt>
      <trkpt lat="59.990184" lon="17.7432711">
        <ele>0</ele>
        <time>2012-07-16T10:29:39Z</time>
      </trkpt>
      <trkpt lat="59.9902224" lon="17.7432487">
        <ele>0</ele>
        <time>2012-07-16T10:29:43Z</time>
      </trkpt>
      <trkpt lat="59.9902458" lon="17.7432051">
        <ele>0</ele>
        <time>2012-07-16T10:29:49Z</time>
      </trkpt>
      <trkpt lat="59.9902767" lon="17.7431867">
        <ele>0</ele>
        <time>2012-07-16T10:29:51Z</time>
      </trkpt>
      <trkpt lat="59.9904472" lon="17.743231">
        <ele>0</ele>
        <time>2012-07-16T10:29:58Z</time>
      </trkpt>
      <trkpt lat="59.9904779" lon="17.7432446">
        <ele>0</ele>
        <time>2012-07-16T10:30:02Z</time>
      </trkpt>
      <trkpt lat="59.9905554" lon="17.7432849">
        <ele>0</ele>
        <time>2012-07-16T10:30:08Z</time>
      </trkpt>
      <trkpt lat="59.990714" lon="17.7434749">
        <ele>0</ele>
        <time>2012-07-16T10:30:14Z</time>
      </trkpt>
      <trkpt lat="59.9907242" lon="17.7434928">
        <ele>0</ele>
        <time>2012-07-16T10:30:15Z</time>
      </trkpt>
      <trkpt lat="59.9908157" lon="17.7435015">
        <ele>0</ele>
        <time>2012-07-16T10:30:20Z</time>
      </trkpt>
      <trkpt lat="59.9909306" lon="17.7435232">
        <ele>0</ele>
        <time>2012-07-16T10:30:26Z</time>
      </trkpt>
      <trkpt lat="59.9910016" lon="17.743516">
        <ele>0</ele>
        <time>2012-07-16T10:30:32Z</time>
      </trkpt>
      <trkpt lat="59.9910855" lon="17.7435254">
        <ele>0</ele>
        <time>2012-07-16T10:30:39Z</time>
      </trkpt>
      <trkpt lat="59.9910987" lon="17.7434812">
        <ele>0</ele>
        <time>2012-07-16T10:30:44Z</time>
      </trkpt>
      <trkpt lat="59.9911692" lon="17.7433775">
        <ele>0</ele>
        <time>2012-07-16T10:30:48Z</time>
      </trkpt>
      <trkpt lat="59.9912242" lon="17.7433324">
        <ele>0</ele>
        <time>2012-07-16T10:30:51Z</time>
      </trkpt>
      <trkpt lat="59.9913497" lon="17.7433219">
        <ele>0</ele>
        <time>2012-07-16T10:30:58Z</time>
      </trkpt>
      <trkpt lat="59.9914398" lon="17.7433456">
        <ele>0</ele>
        <time>2012-07-16T10:31:05Z</time>
      </trkpt>
      <trkpt lat="59.991549" lon="17.7433413">
        <ele>0</ele>
        <time>2012-07-16T10:31:10Z</time>
      </trkpt>
      <trkpt lat="59.9915895" lon="17.7432818">
        <ele>0</ele>
        <time>2012-07-16T10:31:16Z</time>
      </trkpt>
      <trkpt lat="59.991675" lon="17.7432528">
        <ele>0</ele>
        <time>2012-07-16T10:31:22Z</time>
      </trkpt>
      <trkpt lat="59.9917449" lon="17.7431663">
        <ele>0</ele>
        <time>2012-07-16T10:31:26Z</time>
      </trkpt>
      <trkpt lat="59.9918164" lon="17.7430508">
        <ele>0</ele>
        <time>2012-07-16T10:31:31Z</time>
      </trkpt>
      <trkpt lat="59.991879" lon="17.7429607">
        <ele>0</ele>
        <time>2012-07-16T10:31:37Z</time>
      </trkpt>
      <trkpt lat="59.9919524" lon="17.7428632">
        <ele>0</ele>
        <time>2012-07-16T10:31:41Z</time>
      </trkpt>
      <trkpt lat="59.9920329" lon="17.7428194">
        <ele>0</ele>
        <time>2012-07-16T10:31:46Z</time>
      </trkpt>
      <trkpt lat="59.9921002" lon="17.7425142">
        <ele>0</ele>
        <time>2012-07-16T10:31:52Z</time>
      </trkpt>
      <trkpt lat="59.9921485" lon="17.7424464">
        <ele>0</ele>
        <time>2012-07-16T10:31:55Z</time>
      </trkpt>
      <trkpt lat="59.9922132" lon="17.7421775">
        <ele>0</ele>
        <time>2012-07-16T10:32:01Z</time>
      </trkpt>
      <trkpt lat="59.9922953" lon="17.7419765">
        <ele>0</ele>
        <time>2012-07-16T10:32:07Z</time>
      </trkpt>
      <trkpt lat="59.9923492" lon="17.741838">
        <ele>0</ele>
        <time>2012-07-16T10:32:11Z</time>
      </trkpt>
      <trkpt lat="59.9924011" lon="17.7417067">
        <ele>0</ele>
        <time>2012-07-16T10:32:15Z</time>
      </trkpt>
      <trkpt lat="59.9924251" lon="17.7415238">
        <ele>0</ele>
        <time>2012-07-16T10:32:19Z</time>
      </trkpt>
      <trkpt lat="59.9924503" lon="17.7411887">
        <ele>0</ele>
        <time>2012-07-16T10:32:27Z</time>
      </trkpt>
      <trkpt lat="59.9925882" lon="17.7411034">
        <ele>0</ele>
        <time>2012-07-16T10:32:32Z</time>
      </trkpt>
      <trkpt lat="59.9927146" lon="17.7411084">
        <ele>0</ele>
        <time>2012-07-16T10:32:37Z</time>
      </trkpt>
      <trkpt lat="59.9927461" lon="17.7410658">
        <ele>0</ele>
        <time>2012-07-16T10:32:42Z</time>
      </trkpt>
      <trkpt lat="59.9927467" lon="17.7410602">
        <ele>0</ele>
        <time>2012-07-16T10:32:43Z</time>
      </trkpt>
      <trkpt lat="59.9928538" lon="17.7410692">
        <ele>0</ele>
        <time>2012-07-16T10:32:50Z</time>
      </trkpt>
      <trkpt lat="59.9929581" lon="17.7411327">
        <ele>0</ele>
        <time>2012-07-16T10:32:55Z</time>
      </trkpt>
      <trkpt lat="59.9930463" lon="17.7411241">
        <ele>0</ele>
        <time>2012-07-16T10:33:00Z</time>
      </trkpt>
      <trkpt lat="59.9931242" lon="17.7410625">
        <ele>0</ele>
        <time>2012-07-16T10:33:05Z</time>
      </trkpt>
      <trkpt lat="59.9932186" lon="17.7410418">
        <ele>0</ele>
        <time>2012-07-16T10:33:10Z</time>
      </trkpt>
      <trkpt lat="59.9933378" lon="17.7410848">
        <ele>0</ele>
        <time>2012-07-16T10:33:16Z</time>
      </trkpt>
      <trkpt lat="59.9933964" lon="17.7410248">
        <ele>0</ele>
        <time>2012-07-16T10:33:22Z</time>
      </trkpt>
      <trkpt lat="59.9934596" lon="17.7410986">
        <ele>0</ele>
        <time>2012-07-16T10:33:27Z</time>
      </trkpt>
      <trkpt lat="59.9935657" lon="17.741067">
        <ele>0</ele>
        <time>2012-07-16T10:33:34Z</time>
      </trkpt>
      <trkpt lat="59.9936242" lon="17.7410964">
        <ele>0</ele>
        <time>2012-07-16T10:33:37Z</time>
      </trkpt>
      <trkpt lat="59.9937082" lon="17.7411294">
        <ele>0</ele>
        <time>2012-07-16T10:33:43Z</time>
      </trkpt>
      <trkpt lat="59.9938102" lon="17.7412471">
        <ele>0</ele>
        <time>2012-07-16T10:33:47Z</time>
      </trkpt>
      <trkpt lat="59.9939123" lon="17.7413158">
        <ele>0</ele>
        <time>2012-07-16T10:33:53Z</time>
      </trkpt>
      <trkpt lat="59.9939251" lon="17.7412729">
        <ele>0</ele>
        <time>2012-07-16T10:33:59Z</time>
      </trkpt>
      <trkpt lat="59.9940143" lon="17.7412719">
        <ele>0</ele>
        <time>2012-07-16T10:34:04Z</time>
      </trkpt>
      <trkpt lat="59.9941649" lon="17.7413998">
        <ele>0</ele>
        <time>2012-07-16T10:34:09Z</time>
      </trkpt>
      <trkpt lat="59.9942925" lon="17.7414631">
        <ele>0</ele>
        <time>2012-07-16T10:34:15Z</time>
      </trkpt>
      <trkpt lat="59.9943907" lon="17.7414625">
        <ele>0</ele>
        <time>2012-07-16T10:34:20Z</time>
      </trkpt>
      <trkpt lat="59.9944614" lon="17.7414838">
        <ele>0</ele>
        <time>2012-07-16T10:34:25Z</time>
      </trkpt>
      <trkpt lat="59.994558" lon="17.7414621">
        <ele>0</ele>
        <time>2012-07-16T10:34:31Z</time>
      </trkpt>
      <trkpt lat="59.9945914" lon="17.741458">
        <ele>0</ele>
        <time>2012-07-16T10:34:36Z</time>
      </trkpt>
      <trkpt lat="59.9946728" lon="17.7414945">
        <ele>0</ele>
        <time>2012-07-16T10:34:41Z</time>
      </trkpt>
      <trkpt lat="59.9947851" lon="17.7415316">
        <ele>0</ele>
        <time>2012-07-16T10:34:47Z</time>
      </trkpt>
      <trkpt lat="59.9948044" lon="17.7415099">
        <ele>0</ele>
        <time>2012-07-16T10:34:51Z</time>
      </trkpt>
      <trkpt lat="59.9949176" lon="17.7415149">
        <ele>0</ele>
        <time>2012-07-16T10:34:57Z</time>
      </trkpt>
      <trkpt lat="59.9950835" lon="17.7416823">
        <ele>0</ele>
        <time>2012-07-16T10:35:03Z</time>
      </trkpt>
      <trkpt lat="59.9951198" lon="17.7416728">
        <ele>0</ele>
        <time>2012-07-16T10:35:05Z</time>
      </trkpt>
      <trkpt lat="59.9952037" lon="17.7415251">
        <ele>0</ele>
        <time>2012-07-16T10:35:12Z</time>
      </trkpt>
      <trkpt lat="59.9952233" lon="17.7414665">
        <ele>0</ele>
        <time>2012-07-16T10:35:17Z</time>
      </trkpt>
      <trkpt lat="59.9953559" lon="17.7414754">
        <ele>0</ele>
        <time>2012-07-16T10:35:25Z</time>
      </trkpt>
      <trkpt lat="59.9954621" lon="17.7415679">
        <ele>0</ele>
        <time>2012-07-16T10:35:32Z</time>
      </trkpt>
      <trkpt lat="59.9955171" lon="17.741603">
        <ele>0</ele>
        <time>2012-07-16T10:35:36Z</time>
      </trkpt>
      <trkpt lat="59.9955643" lon="17.7415797">
        <ele>0</ele>
        <time>2012-07-16T10:35:41Z</time>
      </trkpt>
      <trkpt lat="59.9956539" lon="17.7416004">
        <ele>0</ele>
        <time>2012-07-16T10:35:48Z</time>
      </trkpt>
      <trkpt lat="59.9957189" lon="17.7416554">
        <ele>0</ele>
        <time>2012-07-16T10:35:52Z</time>
      </trkpt>
      <trkpt lat="59.9957749" lon="17.7416838">
        <ele>0</ele>
        <time>2012-07-16T10:35:55Z</time>
      </trkpt>
      <trkpt lat="59.9959867" lon="17.7417874">
        <ele>0</ele>
        <time>2012-07-16T10:36:02Z</time>
      </trkpt>
      <trkpt lat="59.9960594" lon="17.7418335">
        <ele>0</ele>
        <time>2012-07-16T10:36:07Z</time>
      </trkpt>
      <trkpt lat="59.9960934" lon="17.7418117">
        <ele>0</ele>
        <time>2012-07-16T10:36:10Z</time>
      </trkpt>
      <trkpt lat="59.996159" lon="17.7418382">
        <ele>0</ele>
        <time>2012-07-16T10:36:14Z</time>
      </trkpt>
      <trkpt lat="59.9962934" lon="17.7418429">
        <ele>0</ele>
        <time>2012-07-16T10:36:24Z</time>
      </trkpt>
      <trkpt lat="59.9963446" lon="17.741862">
        <ele>0</ele>
        <time>2012-07-16T10:36:28Z</time>
      </trkpt>
      <trkpt lat="59.9964605" lon="17.7418682">
        <ele>0</ele>
        <time>2012-07-16T10:36:34Z</time>
      </trkpt>
      <trkpt lat="59.9965089" lon="17.7418647">
        <ele>0</ele>
        <time>2012-07-16T10:36:37Z</time>
      </trkpt>
      <trkpt lat="59.9966399" lon="17.7418786">
        <ele>0</ele>
        <time>2012-07-16T10:36:43Z</time>
      </trkpt>
      <trkpt lat="59.9967342" lon="17.7418993">
        <ele>0</ele>
        <time>2012-07-16T10:36:48Z</time>
      </trkpt>
      <trkpt lat="59.996749" lon="17.7418857">
        <ele>0</ele>
        <time>2012-07-16T10:36:52Z</time>
      </trkpt>
      <trkpt lat="59.9967587" lon="17.7418957">
        <ele>0</ele>
        <time>2012-07-16T10:36:53Z</time>
      </trkpt>
      <trkpt lat="59.9968371" lon="17.741861">
        <ele>0</ele>
        <time>2012-07-16T10:36:59Z</time>
      </trkpt>
      <trkpt lat="59.996926" lon="17.7418053">
        <ele>0</ele>
        <time>2012-07-16T10:37:05Z</time>
      </trkpt>
      <trkpt lat="59.9970275" lon="17.7417724">
        <ele>0</ele>
        <time>2012-07-16T10:37:11Z</time>
      </trkpt>
      <trkpt lat="59.9971083" lon="17.7417368">
        <ele>0</ele>
        <time>2012-07-16T10:37:16Z</time>
      </trkpt>
      <trkpt lat="59.9971753" lon="17.7416988">
        <ele>0</ele>
        <time>2012-07-16T10:37:22Z</time>
      </trkpt>
      <trkpt lat="59.9972411" lon="17.741689">
        <ele>0</ele>
        <time>2012-07-16T10:37:26Z</time>
      </trkpt>
      <trkpt lat="59.9972558" lon="17.741687">
        <ele>0</ele>
        <time>2012-07-16T10:37:27Z</time>
      </trkpt>
      <trkpt lat="59.997354" lon="17.7417038">
        <ele>0</ele>
        <time>2012-07-16T10:37:33Z</time>
      </trkpt>
      <trkpt lat="59.9974285" lon="17.7417558">
        <ele>0</ele>
        <time>2012-07-16T10:37:37Z</time>
      </trkpt>
      <trkpt lat="59.9975131" lon="17.7417259">
        <ele>0</ele>
        <time>2012-07-16T10:37:43Z</time>
      </trkpt>
      <trkpt lat="59.997629" lon="17.741705">
        <ele>0</ele>
        <time>2012-07-16T10:37:50Z</time>
      </trkpt>
      <trkpt lat="59.9977352" lon="17.7417335">
        <ele>0</ele>
        <time>2012-07-16T10:37:56Z</time>
      </trkpt>
      <trkpt lat="59.9977922" lon="17.7417486">
        <ele>0</ele>
        <time>2012-07-16T10:38:01Z</time>
      </trkpt>
      <trkpt lat="59.9978764" lon="17.7418123">
        <ele>0</ele>
        <time>2012-07-16T10:38:05Z</time>
      </trkpt>
      <trkpt lat="59.9979557" lon="17.7418029">
        <ele>0</ele>
        <time>2012-07-16T10:38:10Z</time>
      </trkpt>
      <trkpt lat="59.9979573" lon="17.7417258">
        <ele>0</ele>
        <time>2012-07-16T10:38:15Z</time>
      </trkpt>
      <trkpt lat="59.9980626" lon="17.7417801">
        <ele>0</ele>
        <time>2012-07-16T10:38:19Z</time>
      </trkpt>
      <trkpt lat="59.9980936" lon="17.7416833">
        <ele>0</ele>
        <time>2012-07-16T10:38:24Z</time>
      </trkpt>
      <trkpt lat="59.9981898" lon="17.7416789">
        <ele>0</ele>
        <time>2012-07-16T10:38:29Z</time>
      </trkpt>
      <trkpt lat="59.9982438" lon="17.7416357">
        <ele>0</ele>
        <time>2012-07-16T10:38:34Z</time>
      </trkpt>
      <trkpt lat="59.9983987" lon="17.7417209">
        <ele>0</ele>
        <time>2012-07-16T10:38:40Z</time>
      </trkpt>
      <trkpt lat="59.9984925" lon="17.7417548">
        <ele>0</ele>
        <time>2012-07-16T10:38:44Z</time>
      </trkpt>
      <trkpt lat="59.9985397" lon="17.7417195">
        <ele>0</ele>
        <time>2012-07-16T10:38:49Z</time>
      </trkpt>
      <trkpt lat="59.9986639" lon="17.741776">
        <ele>0</ele>
        <time>2012-07-16T10:38:54Z</time>
      </trkpt>
      <trkpt lat="59.9987597" lon="17.7418188">
        <ele>0</ele>
        <time>2012-07-16T10:38:59Z</time>
      </trkpt>
      <trkpt lat="59.9988058" lon="17.74179">
        <ele>0</ele>
        <time>2012-07-16T10:39:04Z</time>
      </trkpt>
      <trkpt lat="59.998851" lon="17.741791">
        <ele>0</ele>
        <time>2012-07-16T10:39:09Z</time>
      </trkpt>
      <trkpt lat="59.9988562" lon="17.7417615">
        <ele>0</ele>
        <time>2012-07-16T10:39:10Z</time>
      </trkpt>
      <trkpt lat="59.998923" lon="17.7417349">
        <ele>0</ele>
        <time>2012-07-16T10:39:14Z</time>
      </trkpt>
      <trkpt lat="59.9989463" lon="17.741602">
        <ele>0</ele>
        <time>2012-07-16T10:39:20Z</time>
      </trkpt>
    </trkseg>
  </trk>
</gpx>